sensor_id;sensor_type;location;lat;lon;timestamp;P1;durP1;ratioP1;P2;durP2;ratioP2
2522;SDS011;1272;53.332;9.860;2023-03-20T00:02:59;30.03;;;18.93;;
2522;SDS011;1272;53.332;9.860;2023-03-20T00:05:25;29.20;;;18.97;;
2522;SDS011;1272;53.332;9.860;2023-03-20T00:07:52;31.30;;;18.63;;
2522;SDS011;1272;53.332;9.860;2023-03-20T00:10:19;30.80;;;18.20;;
2522;SDS011;1272;53.332;9.860;2023-03-20T00:12:46;28.80;;;17.70;;
2522;SDS011;1272;53.332;9.860;2023-03-20T00:15:32;29.87;;;18.00;;
2522;SDS011;1272;53.332;9.860;2023-03-20T00:18:02;29.80;;;19.30;;
2522;SDS011;1272;53.332;9.860;2023-03-20T00:20:28;37.87;;;21.60;;
2522;SDS011;1272;53.332;9.860;2023-03-20T00:22:54;32.67;;;19.30;;
2522;SDS011;1272;53.332;9.860;2023-03-20T00:25:21;39.67;;;22.23;;
2522;SDS011;1272;53.332;9.860;2023-03-20T00:27:48;33.80;;;20.93;;
2522;SDS011;1272;53.332;9.860;2023-03-20T00:30:19;34.30;;;21.03;;
2522;SDS011;1272;53.332;9.860;2023-03-20T00:32:54;41.63;;;23.00;;
2522;SDS011;1272;53.332;9.860;2023-03-20T00:35:23;34.53;;;21.33;;
2522;SDS011;1272;53.332;9.860;2023-03-20T00:37:55;37.73;;;21.27;;
2522;SDS011;1272;53.332;9.860;2023-03-20T00:40:29;30.93;;;18.33;;
2522;SDS011;1272;53.332;9.860;2023-03-20T00:43:00;33.83;;;19.33;;
2522;SDS011;1272;53.332;9.860;2023-03-20T00:45:27;35.20;;;19.90;;
2522;SDS011;1272;53.332;9.860;2023-03-20T00:47:55;36.13;;;20.13;;
2522;SDS011;1272;53.332;9.860;2023-03-20T00:50:23;34.43;;;19.50;;
2522;SDS011;1272;53.332;9.860;2023-03-20T00:52:56;35.13;;;19.60;;
2522;SDS011;1272;53.332;9.860;2023-03-20T00:55:23;40.53;;;22.63;;
2522;SDS011;1272;53.332;9.860;2023-03-20T00:57:59;38.50;;;21.80;;
2522;SDS011;1272;53.332;9.860;2023-03-20T01:03:00;37.77;;;22.00;;
2522;SDS011;1272;53.332;9.860;2023-03-20T01:05:29;40.87;;;21.37;;
2522;SDS011;1272;53.332;9.860;2023-03-20T01:07:55;37.10;;;18.87;;
2522;SDS011;1272;53.332;9.860;2023-03-20T01:10:21;39.07;;;21.83;;
2522;SDS011;1272;53.332;9.860;2023-03-20T01:12:52;38.43;;;22.10;;
2522;SDS011;1272;53.332;9.860;2023-03-20T01:15:22;42.07;;;21.23;;
2522;SDS011;1272;53.332;9.860;2023-03-20T01:17:52;49.57;;;22.13;;
2522;SDS011;1272;53.332;9.860;2023-03-20T01:20:28;41.30;;;22.50;;
2522;SDS011;1272;53.332;9.860;2023-03-20T01:22:54;38.73;;;22.03;;
2522;SDS011;1272;53.332;9.860;2023-03-20T01:25:20;35.50;;;19.80;;
2522;SDS011;1272;53.332;9.860;2023-03-20T01:27:50;46.33;;;22.00;;
2522;SDS011;1272;53.332;9.860;2023-03-20T01:30:22;44.80;;;23.53;;
2522;SDS011;1272;53.332;9.860;2023-03-20T01:32:52;43.60;;;23.63;;
2522;SDS011;1272;53.332;9.860;2023-03-20T01:35:22;45.30;;;25.17;;
2522;SDS011;1272;53.332;9.860;2023-03-20T01:37:49;43.10;;;22.27;;
2522;SDS011;1272;53.332;9.860;2023-03-20T01:40:38;46.30;;;22.17;;
2522;SDS011;1272;53.332;9.860;2023-03-20T01:43:15;45.07;;;24.40;;
2522;SDS011;1272;53.332;9.860;2023-03-20T01:45:56;48.33;;;22.70;;
2522;SDS011;1272;53.332;9.860;2023-03-20T01:48:55;44.90;;;22.70;;
2522;SDS011;1272;53.332;9.860;2023-03-20T01:51:30;43.33;;;22.60;;
2522;SDS011;1272;53.332;9.860;2023-03-20T02:01:58;54.13;;;26.60;;
2522;SDS011;1272;53.332;9.860;2023-03-20T02:04:26;52.20;;;23.90;;
2522;SDS011;1272;53.332;9.860;2023-03-20T02:06:55;49.03;;;24.53;;
2522;SDS011;1272;53.332;9.860;2023-03-20T02:09:21;51.40;;;25.20;;
2522;SDS011;1272;53.332;9.860;2023-03-20T02:11:47;51.13;;;25.60;;
2522;SDS011;1272;53.332;9.860;2023-03-20T02:14:14;51.97;;;24.57;;
2522;SDS011;1272;53.332;9.860;2023-03-20T02:16:40;50.37;;;25.17;;
2522;SDS011;1272;53.332;9.860;2023-03-20T02:19:06;54.03;;;24.90;;
2522;SDS011;1272;53.332;9.860;2023-03-20T02:25:14;52.97;;;27.50;;
2522;SDS011;1272;53.332;9.860;2023-03-20T02:33:29;65.03;;;26.77;;
2522;SDS011;1272;53.332;9.860;2023-03-20T02:41:51;56.37;;;25.80;;
2522;SDS011;1272;53.332;9.860;2023-03-20T02:47:18;56.47;;;26.07;;
2522;SDS011;1272;53.332;9.860;2023-03-20T02:50:17;57.67;;;26.50;;
2522;SDS011;1272;53.332;9.860;2023-03-20T02:53:03;57.70;;;26.17;;
2522;SDS011;1272;53.332;9.860;2023-03-20T02:56:29;49.27;;;26.33;;
2522;SDS011;1272;53.332;9.860;2023-03-20T02:58:55;55.97;;;25.20;;
2522;SDS011;1272;53.332;9.860;2023-03-20T03:01:36;55.30;;;25.00;;
2522;SDS011;1272;53.332;9.860;2023-03-20T03:04:16;48.13;;;25.33;;
2522;SDS011;1272;53.332;9.860;2023-03-20T03:06:45;48.53;;;25.10;;
2522;SDS011;1272;53.332;9.860;2023-03-20T03:09:27;44.83;;;24.50;;
2522;SDS011;1272;53.332;9.860;2023-03-20T03:12:02;48.57;;;23.10;;
2522;SDS011;1272;53.332;9.860;2023-03-20T03:14:56;41.50;;;21.00;;
2522;SDS011;1272;53.332;9.860;2023-03-20T03:17:28;44.97;;;23.00;;
2522;SDS011;1272;53.332;9.860;2023-03-20T03:19:58;43.67;;;21.80;;
2522;SDS011;1272;53.332;9.860;2023-03-20T03:22:30;42.40;;;21.50;;
2522;SDS011;1272;53.332;9.860;2023-03-20T03:24:58;40.27;;;21.80;;
2522;SDS011;1272;53.332;9.860;2023-03-20T03:29:51;33.33;;;18.07;;
2522;SDS011;1272;53.332;9.860;2023-03-20T03:32:22;34.87;;;19.20;;
2522;SDS011;1272;53.332;9.860;2023-03-20T03:34:51;31.60;;;16.37;;
2522;SDS011;1272;53.332;9.860;2023-03-20T03:40:47;31.30;;;15.90;;
2522;SDS011;1272;53.332;9.860;2023-03-20T03:46:23;26.53;;;15.90;;
2522;SDS011;1272;53.332;9.860;2023-03-20T03:48:55;25.17;;;15.03;;
2522;SDS011;1272;53.332;9.860;2023-03-20T03:51:23;23.80;;;12.63;;
2522;SDS011;1272;53.332;9.860;2023-03-20T03:53:59;18.60;;;12.13;;
2522;SDS011;1272;53.332;9.860;2023-03-20T03:56:31;14.87;;;10.90;;
2522;SDS011;1272;53.332;9.860;2023-03-20T03:58:59;17.63;;;11.23;;
2522;SDS011;1272;53.332;9.860;2023-03-20T04:01:29;17.63;;;10.90;;
2522;SDS011;1272;53.332;9.860;2023-03-20T04:03:59;17.00;;;9.97;;
2522;SDS011;1272;53.332;9.860;2023-03-20T04:06:27;19.20;;;10.73;;
2522;SDS011;1272;53.332;9.860;2023-03-20T04:08:55;19.00;;;11.07;;
2522;SDS011;1272;53.332;9.860;2023-03-20T04:11:21;19.63;;;11.97;;
2522;SDS011;1272;53.332;9.860;2023-03-20T04:13:49;19.80;;;11.63;;
2522;SDS011;1272;53.332;9.860;2023-03-20T04:16:16;21.17;;;11.40;;
2522;SDS011;1272;53.332;9.860;2023-03-20T04:18:43;21.83;;;12.80;;
2522;SDS011;1272;53.332;9.860;2023-03-20T04:21:09;20.47;;;10.77;;
2522;SDS011;1272;53.332;9.860;2023-03-20T04:23:36;17.70;;;9.47;;
2522;SDS011;1272;53.332;9.860;2023-03-20T04:26:01;14.00;;;9.60;;
2522;SDS011;1272;53.332;9.860;2023-03-20T04:28:27;17.20;;;9.67;;
2522;SDS011;1272;53.332;9.860;2023-03-20T04:30:57;17.53;;;8.80;;
2522;SDS011;1272;53.332;9.860;2023-03-20T04:33:25;14.07;;;8.60;;
2522;SDS011;1272;53.332;9.860;2023-03-20T04:35:51;12.50;;;9.23;;
2522;SDS011;1272;53.332;9.860;2023-03-20T04:38:17;15.13;;;10.00;;
2522;SDS011;1272;53.332;9.860;2023-03-20T04:40:44;13.70;;;8.13;;
2522;SDS011;1272;53.332;9.860;2023-03-20T04:43:11;13.00;;;8.67;;
2522;SDS011;1272;53.332;9.860;2023-03-20T04:45:37;14.47;;;8.23;;
2522;SDS011;1272;53.332;9.860;2023-03-20T04:48:03;9.57;;;7.43;;
2522;SDS011;1272;53.332;9.860;2023-03-20T04:50:30;11.70;;;7.83;;
2522;SDS011;1272;53.332;9.860;2023-03-20T04:52:56;12.13;;;8.20;;
2522;SDS011;1272;53.332;9.860;2023-03-20T04:55:21;13.90;;;8.40;;
2522;SDS011;1272;53.332;9.860;2023-03-20T04:57:47;13.13;;;6.53;;
2522;SDS011;1272;53.332;9.860;2023-03-20T05:00:13;11.43;;;7.07;;
2522;SDS011;1272;53.332;9.860;2023-03-20T05:02:40;15.30;;;7.47;;
2522;SDS011;1272;53.332;9.860;2023-03-20T05:05:06;11.70;;;7.10;;
2522;SDS011;1272;53.332;9.860;2023-03-20T05:07:32;13.87;;;7.40;;
2522;SDS011;1272;53.332;9.860;2023-03-20T05:09:58;13.47;;;7.63;;
2522;SDS011;1272;53.332;9.860;2023-03-20T05:12:24;10.57;;;8.00;;
2522;SDS011;1272;53.332;9.860;2023-03-20T05:14:51;10.20;;;5.50;;
2522;SDS011;1272;53.332;9.860;2023-03-20T05:17:19;9.80;;;6.20;;
2522;SDS011;1272;53.332;9.860;2023-03-20T05:19:45;7.73;;;6.40;;
2522;SDS011;1272;53.332;9.860;2023-03-20T05:22:11;8.93;;;6.73;;
2522;SDS011;1272;53.332;9.860;2023-03-20T05:24:37;10.40;;;6.90;;
2522;SDS011;1272;53.332;9.860;2023-03-20T05:27:03;9.37;;;6.30;;
2522;SDS011;1272;53.332;9.860;2023-03-20T05:29:29;13.90;;;7.33;;
2522;SDS011;1272;53.332;9.860;2023-03-20T05:31:55;7.97;;;6.40;;
2522;SDS011;1272;53.332;9.860;2023-03-20T05:34:21;7.40;;;5.63;;
2522;SDS011;1272;53.332;9.860;2023-03-20T05:36:46;7.83;;;6.53;;
2522;SDS011;1272;53.332;9.860;2023-03-20T05:39:12;11.33;;;7.63;;
2522;SDS011;1272;53.332;9.860;2023-03-20T05:41:38;10.03;;;6.60;;
2522;SDS011;1272;53.332;9.860;2023-03-20T05:44:04;11.07;;;7.17;;
2522;SDS011;1272;53.332;9.860;2023-03-20T05:46:30;9.57;;;6.60;;
2522;SDS011;1272;53.332;9.860;2023-03-20T05:48:55;10.00;;;6.30;;
2522;SDS011;1272;53.332;9.860;2023-03-20T05:51:21;8.80;;;6.83;;
2522;SDS011;1272;53.332;9.860;2023-03-20T05:53:47;8.47;;;6.40;;
2522;SDS011;1272;53.332;9.860;2023-03-20T05:56:13;6.27;;;5.67;;
2522;SDS011;1272;53.332;9.860;2023-03-20T05:58:38;9.63;;;6.80;;
2522;SDS011;1272;53.332;9.860;2023-03-20T06:01:04;12.00;;;6.77;;
2522;SDS011;1272;53.332;9.860;2023-03-20T06:03:30;7.43;;;6.50;;
2522;SDS011;1272;53.332;9.860;2023-03-20T06:05:56;8.10;;;6.97;;
2522;SDS011;1272;53.332;9.860;2023-03-20T06:08:21;10.57;;;7.00;;
2522;SDS011;1272;53.332;9.860;2023-03-20T06:10:49;8.20;;;6.00;;
2522;SDS011;1272;53.332;9.860;2023-03-20T06:13:15;10.13;;;6.97;;
2522;SDS011;1272;53.332;9.860;2023-03-20T06:15:41;9.97;;;6.43;;
2522;SDS011;1272;53.332;9.860;2023-03-20T06:18:07;11.23;;;6.67;;
2522;SDS011;1272;53.332;9.860;2023-03-20T06:20:33;8.67;;;6.27;;
2522;SDS011;1272;53.332;9.860;2023-03-20T06:22:59;7.70;;;6.30;;
2522;SDS011;1272;53.332;9.860;2023-03-20T06:25:24;8.40;;;6.43;;
2522;SDS011;1272;53.332;9.860;2023-03-20T06:27:50;9.30;;;6.43;;
2522;SDS011;1272;53.332;9.860;2023-03-20T06:30:16;8.50;;;6.70;;
2522;SDS011;1272;53.332;9.860;2023-03-20T06:32:42;9.93;;;7.00;;
2522;SDS011;1272;53.332;9.860;2023-03-20T06:35:08;9.93;;;6.50;;
2522;SDS011;1272;53.332;9.860;2023-03-20T06:37:35;7.30;;;5.83;;
2522;SDS011;1272;53.332;9.860;2023-03-20T06:40:01;11.00;;;7.93;;
2522;SDS011;1272;53.332;9.860;2023-03-20T06:42:28;8.47;;;6.37;;
2522;SDS011;1272;53.332;9.860;2023-03-20T06:44:54;7.40;;;6.07;;
2522;SDS011;1272;53.332;9.860;2023-03-20T06:47:20;9.73;;;6.20;;
2522;SDS011;1272;53.332;9.860;2023-03-20T06:49:46;10.30;;;7.40;;
2522;SDS011;1272;53.332;9.860;2023-03-20T06:52:15;8.70;;;6.43;;
2522;SDS011;1272;53.332;9.860;2023-03-20T06:54:42;10.37;;;7.50;;
2522;SDS011;1272;53.332;9.860;2023-03-20T06:57:09;13.13;;;8.60;;
2522;SDS011;1272;53.332;9.860;2023-03-20T06:59:35;12.00;;;7.27;;
2522;SDS011;1272;53.332;9.860;2023-03-20T07:02:02;10.27;;;6.83;;
2522;SDS011;1272;53.332;9.860;2023-03-20T07:04:29;9.57;;;6.97;;
2522;SDS011;1272;53.332;9.860;2023-03-20T07:06:56;8.00;;;7.20;;
2522;SDS011;1272;53.332;9.860;2023-03-20T07:09:22;11.00;;;7.63;;
2522;SDS011;1272;53.332;9.860;2023-03-20T07:11:48;10.17;;;7.20;;
2522;SDS011;1272;53.332;9.860;2023-03-20T07:14:14;12.97;;;8.17;;
2522;SDS011;1272;53.332;9.860;2023-03-20T07:16:40;12.90;;;8.03;;
2522;SDS011;1272;53.332;9.860;2023-03-20T07:19:06;11.03;;;6.80;;
2522;SDS011;1272;53.332;9.860;2023-03-20T07:21:32;9.80;;;7.40;;
2522;SDS011;1272;53.332;9.860;2023-03-20T07:23:58;7.47;;;6.30;;
2522;SDS011;1272;53.332;9.860;2023-03-20T07:26:25;7.60;;;6.50;;
2522;SDS011;1272;53.332;9.860;2023-03-20T07:28:51;10.80;;;7.43;;
2522;SDS011;1272;53.332;9.860;2023-03-20T07:31:24;10.77;;;7.00;;
2522;SDS011;1272;53.332;9.860;2023-03-20T07:33:51;10.60;;;7.67;;
2522;SDS011;1272;53.332;9.860;2023-03-20T07:36:17;8.77;;;6.97;;
2522;SDS011;1272;53.332;9.860;2023-03-20T07:38:43;10.63;;;7.10;;
2522;SDS011;1272;53.332;9.860;2023-03-20T07:41:08;10.60;;;7.80;;
2522;SDS011;1272;53.332;9.860;2023-03-20T07:43:34;10.67;;;7.40;;
2522;SDS011;1272;53.332;9.860;2023-03-20T07:46:01;9.50;;;6.70;;
2522;SDS011;1272;53.332;9.860;2023-03-20T07:48:28;7.77;;;6.10;;
2522;SDS011;1272;53.332;9.860;2023-03-20T07:50:53;10.93;;;7.47;;
2522;SDS011;1272;53.332;9.860;2023-03-20T07:53:19;10.00;;;7.50;;
2522;SDS011;1272;53.332;9.860;2023-03-20T07:55:45;11.20;;;7.47;;
2522;SDS011;1272;53.332;9.860;2023-03-20T07:58:11;11.57;;;8.47;;
2522;SDS011;1272;53.332;9.860;2023-03-20T08:00:36;13.60;;;8.30;;
2522;SDS011;1272;53.332;9.860;2023-03-20T08:03:02;11.43;;;7.67;;
2522;SDS011;1272;53.332;9.860;2023-03-20T08:05:28;11.93;;;7.80;;
2522;SDS011;1272;53.332;9.860;2023-03-20T08:07:54;9.00;;;7.40;;
2522;SDS011;1272;53.332;9.860;2023-03-20T08:10:22;9.17;;;7.57;;
2522;SDS011;1272;53.332;9.860;2023-03-20T08:12:48;13.37;;;8.73;;
2522;SDS011;1272;53.332;9.860;2023-03-20T08:15:13;12.03;;;7.83;;
2522;SDS011;1272;53.332;9.860;2023-03-20T08:17:43;13.80;;;8.83;;
2522;SDS011;1272;53.332;9.860;2023-03-20T08:20:09;13.97;;;9.10;;
2522;SDS011;1272;53.332;9.860;2023-03-20T08:22:37;14.70;;;10.40;;
2522;SDS011;1272;53.332;9.860;2023-03-20T08:25:02;13.03;;;9.27;;
2522;SDS011;1272;53.332;9.860;2023-03-20T08:27:28;14.50;;;9.90;;
2522;SDS011;1272;53.332;9.860;2023-03-20T08:29:55;15.80;;;11.03;;
2522;SDS011;1272;53.332;9.860;2023-03-20T08:32:20;15.30;;;10.73;;
2522;SDS011;1272;53.332;9.860;2023-03-20T08:34:46;17.70;;;10.17;;
2522;SDS011;1272;53.332;9.860;2023-03-20T08:37:12;16.70;;;10.33;;
2522;SDS011;1272;53.332;9.860;2023-03-20T08:39:38;16.70;;;9.80;;
2522;SDS011;1272;53.332;9.860;2023-03-20T08:42:04;12.07;;;9.37;;
2522;SDS011;1272;53.332;9.860;2023-03-20T08:44:30;17.10;;;10.70;;
2522;SDS011;1272;53.332;9.860;2023-03-20T08:46:57;10.90;;;9.00;;
2522;SDS011;1272;53.332;9.860;2023-03-20T08:49:23;20.00;;;10.00;;
2522;SDS011;1272;53.332;9.860;2023-03-20T08:51:49;14.80;;;10.50;;
2522;SDS011;1272;53.332;9.860;2023-03-20T08:54:15;11.00;;;9.33;;
2522;SDS011;1272;53.332;9.860;2023-03-20T08:56:42;13.47;;;9.67;;
2522;SDS011;1272;53.332;9.860;2023-03-20T08:59:09;10.73;;;8.53;;
2522;SDS011;1272;53.332;9.860;2023-03-20T09:01:36;12.37;;;9.50;;
2522;SDS011;1272;53.332;9.860;2023-03-20T09:04:02;11.80;;;8.90;;
2522;SDS011;1272;53.332;9.860;2023-03-20T09:06:28;14.30;;;10.13;;
2522;SDS011;1272;53.332;9.860;2023-03-20T09:08:55;17.13;;;10.13;;
2522;SDS011;1272;53.332;9.860;2023-03-20T09:11:23;14.87;;;10.10;;
2522;SDS011;1272;53.332;9.860;2023-03-20T09:13:49;13.07;;;9.70;;
2522;SDS011;1272;53.332;9.860;2023-03-20T09:16:15;12.50;;;10.30;;
2522;SDS011;1272;53.332;9.860;2023-03-20T09:18:43;13.57;;;10.53;;
2522;SDS011;1272;53.332;9.860;2023-03-20T09:21:09;15.73;;;10.00;;
2522;SDS011;1272;53.332;9.860;2023-03-20T09:23:35;12.77;;;10.10;;
2522;SDS011;1272;53.332;9.860;2023-03-20T09:26:00;10.30;;;8.93;;
2522;SDS011;1272;53.332;9.860;2023-03-20T09:28:26;14.70;;;8.90;;
2522;SDS011;1272;53.332;9.860;2023-03-20T09:30:56;13.80;;;8.87;;
2522;SDS011;1272;53.332;9.860;2023-03-20T09:33:25;11.17;;;8.07;;
2522;SDS011;1272;53.332;9.860;2023-03-20T09:35:51;10.20;;;8.77;;
2522;SDS011;1272;53.332;9.860;2023-03-20T09:38:17;11.40;;;7.73;;
2522;SDS011;1272;53.332;9.860;2023-03-20T09:40:56;13.63;;;9.23;;
2522;SDS011;1272;53.332;9.860;2023-03-20T09:43:44;14.00;;;9.77;;
2522;SDS011;1272;53.332;9.860;2023-03-20T09:52:02;10.70;;;8.90;;
2522;SDS011;1272;53.332;9.860;2023-03-20T09:54:53;11.70;;;8.30;;
2522;SDS011;1272;53.332;9.860;2023-03-20T09:57:27;14.40;;;8.13;;
2522;SDS011;1272;53.332;9.860;2023-03-20T10:00:09;11.90;;;9.40;;
2522;SDS011;1272;53.332;9.860;2023-03-20T10:05:29;9.70;;;7.80;;
2522;SDS011;1272;53.332;9.860;2023-03-20T10:08:02;13.70;;;8.53;;
2522;SDS011;1272;53.332;9.860;2023-03-20T10:15:40;12.10;;;8.40;;
2522;SDS011;1272;53.332;9.860;2023-03-20T10:18:37;14.73;;;8.40;;
2522;SDS011;1272;53.332;9.860;2023-03-20T10:21:17;11.17;;;7.80;;
2522;SDS011;1272;53.332;9.860;2023-03-20T10:26:22;11.50;;;7.57;;
2522;SDS011;1272;53.332;9.860;2023-03-20T10:28:58;12.13;;;7.63;;
2522;SDS011;1272;53.332;9.860;2023-03-20T10:37:09;12.77;;;7.13;;
2522;SDS011;1272;53.332;9.860;2023-03-20T10:43:02;12.23;;;8.67;;
2522;SDS011;1272;53.332;9.860;2023-03-20T10:45:43;9.67;;;8.27;;
2522;SDS011;1272;53.332;9.860;2023-03-20T10:48:23;11.37;;;8.77;;
2522;SDS011;1272;53.332;9.860;2023-03-20T10:50:52;13.37;;;8.63;;
2522;SDS011;1272;53.332;9.860;2023-03-20T10:53:23;10.27;;;8.00;;
2522;SDS011;1272;53.332;9.860;2023-03-20T10:55:50;9.53;;;7.23;;
2522;SDS011;1272;53.332;9.860;2023-03-20T10:58:22;16.90;;;8.03;;
2522;SDS011;1272;53.332;9.860;2023-03-20T11:00:49;12.37;;;8.63;;
2522;SDS011;1272;53.332;9.860;2023-03-20T11:03:21;11.20;;;7.77;;
2522;SDS011;1272;53.332;9.860;2023-03-20T11:08:39;10.30;;;6.77;;
2522;SDS011;1272;53.332;9.860;2023-03-20T11:11:07;8.40;;;7.47;;
2522;SDS011;1272;53.332;9.860;2023-03-20T11:13:36;12.90;;;7.70;;
2522;SDS011;1272;53.332;9.860;2023-03-20T11:16:08;9.60;;;7.93;;
2522;SDS011;1272;53.332;9.860;2023-03-20T11:18:40;15.40;;;8.90;;
2522;SDS011;1272;53.332;9.860;2023-03-20T11:21:07;10.93;;;7.60;;
2522;SDS011;1272;53.332;9.860;2023-03-20T11:23:39;12.70;;;6.97;;
2522;SDS011;1272;53.332;9.860;2023-03-20T11:26:05;11.13;;;7.93;;
2522;SDS011;1272;53.332;9.860;2023-03-20T11:31:06;9.63;;;7.97;;
2522;SDS011;1272;53.332;9.860;2023-03-20T11:36:26;8.10;;;7.20;;
2522;SDS011;1272;53.332;9.860;2023-03-20T11:39:05;6.93;;;6.33;;
2522;SDS011;1272;53.332;9.860;2023-03-20T11:41:34;10.40;;;7.10;;
2522;SDS011;1272;53.332;9.860;2023-03-20T11:44:23;10.63;;;6.90;;
2522;SDS011;1272;53.332;9.860;2023-03-20T11:46:57;14.10;;;6.90;;
2522;SDS011;1272;53.332;9.860;2023-03-20T11:49:28;10.27;;;7.23;;
2522;SDS011;1272;53.332;9.860;2023-03-20T11:51:58;13.67;;;7.83;;
2522;SDS011;1272;53.332;9.860;2023-03-20T11:54:26;9.03;;;6.87;;
2522;SDS011;1272;53.332;9.860;2023-03-20T11:56:56;12.90;;;7.93;;
2522;SDS011;1272;53.332;9.860;2023-03-20T11:59:29;8.60;;;7.10;;
2522;SDS011;1272;53.332;9.860;2023-03-20T12:02:00;8.17;;;7.20;;
2522;SDS011;1272;53.332;9.860;2023-03-20T12:04:32;9.50;;;6.80;;
2522;SDS011;1272;53.332;9.860;2023-03-20T12:07:13;10.97;;;8.10;;
2522;SDS011;1272;53.332;9.860;2023-03-20T12:17:56;9.50;;;8.17;;
2522;SDS011;1272;53.332;9.860;2023-03-20T12:23:14;12.47;;;8.47;;
2522;SDS011;1272;53.332;9.860;2023-03-20T12:34:06;13.10;;;8.07;;
2522;SDS011;1272;53.332;9.860;2023-03-20T12:36:41;10.53;;;7.47;;
2522;SDS011;1272;53.332;9.860;2023-03-20T12:45:09;9.53;;;6.60;;
2522;SDS011;1272;53.332;9.860;2023-03-20T12:51:19;10.33;;;7.57;;
2522;SDS011;1272;53.332;9.860;2023-03-20T13:04:55;7.83;;;7.03;;
2522;SDS011;1272;53.332;9.860;2023-03-20T13:10:23;10.07;;;6.53;;
2522;SDS011;1272;53.332;9.860;2023-03-20T13:13:01;8.77;;;6.17;;
2522;SDS011;1272;53.332;9.860;2023-03-20T13:18:19;7.77;;;6.43;;
2522;SDS011;1272;53.332;9.860;2023-03-20T13:20:51;7.13;;;6.43;;
2522;SDS011;1272;53.332;9.860;2023-03-20T13:39:47;7.37;;;6.13;;
2522;SDS011;1272;53.332;9.860;2023-03-20T13:42:36;7.43;;;5.67;;
2522;SDS011;1272;53.332;9.860;2023-03-20T13:45:20;10.43;;;6.50;;
2522;SDS011;1272;53.332;9.860;2023-03-20T13:47:55;7.47;;;6.03;;
2522;SDS011;1272;53.332;9.860;2023-03-20T13:50:41;7.53;;;6.17;;
2522;SDS011;1272;53.332;9.860;2023-03-20T13:58:33;12.30;;;5.97;;
2522;SDS011;1272;53.332;9.860;2023-03-20T14:01:11;7.20;;;5.30;;
2522;SDS011;1272;53.332;9.860;2023-03-20T14:04:03;8.13;;;5.73;;
2522;SDS011;1272;53.332;9.860;2023-03-20T14:09:24;10.37;;;6.57;;
2522;SDS011;1272;53.332;9.860;2023-03-20T14:12:06;8.90;;;5.70;;
2522;SDS011;1272;53.332;9.860;2023-03-20T14:17:25;9.57;;;6.10;;
2522;SDS011;1272;53.332;9.860;2023-03-20T14:19:53;8.43;;;6.50;;
2522;SDS011;1272;53.332;9.860;2023-03-20T14:24:58;8.37;;;6.17;;
2522;SDS011;1272;53.332;9.860;2023-03-20T14:27:29;7.30;;;6.30;;
2522;SDS011;1272;53.332;9.860;2023-03-20T14:30:25;7.60;;;6.30;;
2522;SDS011;1272;53.332;9.860;2023-03-20T14:35:29;10.90;;;6.73;;
2522;SDS011;1272;53.332;9.860;2023-03-20T14:38:08;7.57;;;6.80;;
2522;SDS011;1272;53.332;9.860;2023-03-20T14:40:50;6.43;;;5.60;;
2522;SDS011;1272;53.332;9.860;2023-03-20T14:48:53;8.60;;;7.00;;
2522;SDS011;1272;53.332;9.860;2023-03-20T14:56:46;10.17;;;6.90;;
2522;SDS011;1272;53.332;9.860;2023-03-20T14:59:14;10.33;;;7.60;;
2522;SDS011;1272;53.332;9.860;2023-03-20T15:09:31;9.27;;;7.57;;
2522;SDS011;1272;53.332;9.860;2023-03-20T15:12:00;12.03;;;7.30;;
2522;SDS011;1272;53.332;9.860;2023-03-20T15:14:35;12.70;;;8.67;;
2522;SDS011;1272;53.332;9.860;2023-03-20T15:17:14;8.40;;;7.60;;
2522;SDS011;1272;53.332;9.860;2023-03-20T15:19:42;10.30;;;7.63;;
2522;SDS011;1272;53.332;9.860;2023-03-20T15:22:14;10.50;;;7.20;;
2522;SDS011;1272;53.332;9.860;2023-03-20T15:24:49;12.73;;;7.73;;
2522;SDS011;1272;53.332;9.860;2023-03-20T15:27:20;11.07;;;7.40;;
2522;SDS011;1272;53.332;9.860;2023-03-20T15:29:48;9.93;;;7.43;;
2522;SDS011;1272;53.332;9.860;2023-03-20T15:32:17;8.03;;;7.23;;
2522;SDS011;1272;53.332;9.860;2023-03-20T15:34:44;10.40;;;7.40;;
2522;SDS011;1272;53.332;9.860;2023-03-20T15:37:15;8.77;;;7.67;;
2522;SDS011;1272;53.332;9.860;2023-03-20T15:39:44;8.83;;;7.90;;
2522;SDS011;1272;53.332;9.860;2023-03-20T15:42:13;9.63;;;7.43;;
2522;SDS011;1272;53.332;9.860;2023-03-20T15:44:41;9.83;;;6.80;;
2522;SDS011;1272;53.332;9.860;2023-03-20T15:47:16;11.20;;;7.93;;
2522;SDS011;1272;53.332;9.860;2023-03-20T15:49:50;10.80;;;7.20;;
2522;SDS011;1272;53.332;9.860;2023-03-20T15:54:47;10.63;;;8.10;;
2522;SDS011;1272;53.332;9.860;2023-03-20T15:57:17;17.37;;;10.13;;
2522;SDS011;1272;53.332;9.860;2023-03-20T16:00:14;9.60;;;8.07;;
2522;SDS011;1272;53.332;9.860;2023-03-20T16:02:46;10.23;;;7.50;;
2522;SDS011;1272;53.332;9.860;2023-03-20T16:05:17;10.50;;;8.07;;
2522;SDS011;1272;53.332;9.860;2023-03-20T16:07:47;10.10;;;7.43;;
2522;SDS011;1272;53.332;9.860;2023-03-20T16:12:56;9.53;;;7.57;;
2522;SDS011;1272;53.332;9.860;2023-03-20T16:15:23;11.17;;;8.10;;
2522;SDS011;1272;53.332;9.860;2023-03-20T16:17:52;10.27;;;7.80;;
2522;SDS011;1272;53.332;9.860;2023-03-20T16:20:20;16.03;;;7.63;;
2522;SDS011;1272;53.332;9.860;2023-03-20T16:22:48;11.50;;;8.43;;
2522;SDS011;1272;53.332;9.860;2023-03-20T16:25:16;11.63;;;7.80;;
2522;SDS011;1272;53.332;9.860;2023-03-20T16:27:44;9.80;;;7.60;;
2522;SDS011;1272;53.332;9.860;2023-03-20T16:30:23;11.00;;;8.23;;
2522;SDS011;1272;53.332;9.860;2023-03-20T16:32:55;16.27;;;8.60;;
2522;SDS011;1272;53.332;9.860;2023-03-20T16:35:44;12.03;;;8.53;;
2522;SDS011;1272;53.332;9.860;2023-03-20T16:40:47;8.37;;;7.20;;
2522;SDS011;1272;53.332;9.860;2023-03-20T16:43:18;9.17;;;7.57;;
2522;SDS011;1272;53.332;9.860;2023-03-20T16:45:49;12.23;;;8.60;;
2522;SDS011;1272;53.332;9.860;2023-03-20T16:48:24;9.00;;;7.97;;
2522;SDS011;1272;53.332;9.860;2023-03-20T16:50:54;11.30;;;7.33;;
2522;SDS011;1272;53.332;9.860;2023-03-20T16:53:21;9.73;;;8.13;;
2522;SDS011;1272;53.332;9.860;2023-03-20T16:55:49;10.83;;;7.93;;
2522;SDS011;1272;53.332;9.860;2023-03-20T16:58:20;9.70;;;7.50;;
2522;SDS011;1272;53.332;9.860;2023-03-20T17:01:04;11.40;;;8.43;;
2522;SDS011;1272;53.332;9.860;2023-03-20T17:03:36;16.87;;;8.10;;
2522;SDS011;1272;53.332;9.860;2023-03-20T17:08:46;19.93;;;8.67;;
2522;SDS011;1272;53.332;9.860;2023-03-20T17:11:21;15.57;;;8.20;;
2522;SDS011;1272;53.332;9.860;2023-03-20T17:13:55;9.07;;;8.07;;
2522;SDS011;1272;53.332;9.860;2023-03-20T17:16:21;10.40;;;8.70;;
2522;SDS011;1272;53.332;9.860;2023-03-20T17:18:57;12.03;;;7.83;;
2522;SDS011;1272;53.332;9.860;2023-03-20T17:21:24;8.60;;;7.70;;
2522;SDS011;1272;53.332;9.860;2023-03-20T17:23:50;11.40;;;8.00;;
2522;SDS011;1272;53.332;9.860;2023-03-20T17:26:16;12.87;;;8.23;;
2522;SDS011;1272;53.332;9.860;2023-03-20T17:28:42;12.27;;;8.13;;
2522;SDS011;1272;53.332;9.860;2023-03-20T17:31:14;9.77;;;8.07;;
2522;SDS011;1272;53.332;9.860;2023-03-20T17:33:41;15.23;;;8.57;;
2522;SDS011;1272;53.332;9.860;2023-03-20T17:36:18;9.63;;;7.90;;
2522;SDS011;1272;53.332;9.860;2023-03-20T17:38:50;10.60;;;8.87;;
2522;SDS011;1272;53.332;9.860;2023-03-20T17:41:17;13.40;;;10.63;;
2522;SDS011;1272;53.332;9.860;2023-03-20T17:43:44;8.83;;;8.07;;
2522;SDS011;1272;53.332;9.860;2023-03-20T17:46:29;9.73;;;8.80;;
2522;SDS011;1272;53.332;9.860;2023-03-20T17:49:02;8.30;;;7.47;;
2522;SDS011;1272;53.332;9.860;2023-03-20T17:51:31;13.00;;;9.37;;
2522;SDS011;1272;53.332;9.860;2023-03-20T17:53:57;10.10;;;8.70;;
2522;SDS011;1272;53.332;9.860;2023-03-20T17:56:24;13.10;;;8.60;;
2522;SDS011;1272;53.332;9.860;2023-03-20T17:58:57;10.17;;;7.23;;
2522;SDS011;1272;53.332;9.860;2023-03-20T18:01:23;7.80;;;7.10;;
2522;SDS011;1272;53.332;9.860;2023-03-20T18:03:50;10.33;;;7.97;;
2522;SDS011;1272;53.332;9.860;2023-03-20T18:06:20;11.90;;;7.80;;
2522;SDS011;1272;53.332;9.860;2023-03-20T18:08:57;10.23;;;8.33;;
2522;SDS011;1272;53.332;9.860;2023-03-20T18:11:25;9.60;;;7.60;;
2522;SDS011;1272;53.332;9.860;2023-03-20T18:13:51;10.00;;;8.00;;
2522;SDS011;1272;53.332;9.860;2023-03-20T18:16:18;8.67;;;7.40;;
2522;SDS011;1272;53.332;9.860;2023-03-20T18:18:46;11.73;;;7.37;;